Time;durP1;ratioP1;P1;durP2;ratioP2;P2;SDS_P1;SDS_P2;PMS_P1;PMS_P2;Temp;Humidity;BMP_temperature;BMP_pressure;BME280_temperature;BME280_humidity;BME280_pressure;Samples;Min_cycle;Max_cycle;Signal;HPM_P1;HPM_P2
2024/03/26 00:02:24;;;;;;;22.58;14.95;;;6.90;90.20;;;;;;4986148;28;20046;-68
2024/03/26 00:04:51;;;;;;;20.45;14.10;;;6.90;90.40;;;;;;4971995;28;20030;-68
2024/03/26 00:07:18;;;;;;;22.45;14.55;;;6.70;90.70;;;;;;4973020;28;20039;-69
2024/03/26 00:09:44;;;;;;;23.77;14.32;;;6.80;90.90;;;;;;4973195;28;20088;-70
2024/03/26 00:12:11;;;;;;;24.58;15.07;;;6.50;91.40;;;;;;4973265;28;20378;-73
2024/03/26 00:14:37;;;;;;;26.95;14.70;;;6.30;91.90;;;;;;4969581;28;20042;-71
2024/03/26 00:17:04;;;;;;;24.92;15.45;;;6.60;91.90;;;;;;4970597;28;20031;-68
2024/03/26 00:19:30;;;;;;;23.55;14.82;;;6.60;91.40;;;;;;4980916;28;20042;-70
2024/03/26 00:21:56;;;;;;;23.88;14.75;;;6.50;91.70;;;;;;4970944;28;20596;-69
2024/03/26 00:24:23;;;;;;;22.02;14.02;;;6.50;91.70;;;;;;4972901;28;20077;-69
2024/03/26 00:26:50;;;;;;;19.10;14.30;;;6.60;91.50;;;;;;4976323;28;20035;-70
2024/03/26 00:29:16;;;;;;;19.33;13.45;;;6.50;90.80;;;;;;4975190;28;20077;-71
2024/03/26 00:31:42;;;;;;;19.58;13.32;;;6.40;91.30;;;;;;4968111;28;20104;-69
2024/03/26 00:34:27;;;;;;;23.25;14.48;;;6.60;91.10;;;;;;4982486;28;20423;-73
2024/03/26 00:36:53;;;;;;;20.52;14.48;;;6.60;91.10;;;;;;4977207;28;20424;-72
2024/03/26 00:39:19;;;;;;;19.92;13.32;;;6.50;91.10;;;;;;4972726;28;20061;-71
2024/03/26 00:41:45;;;;;;;16.88;12.82;;;6.40;91.40;;;;;;5027916;28;20051;-70
2024/03/26 00:44:12;;;;;;;21.33;14.02;;;6.30;90.60;;;;;;4969463;28;20105;-70
2024/03/26 00:46:38;;;;;;;25.27;14.60;;;6.30;91.10;;;;;;4959420;28;20039;-71
2024/03/26 00:49:04;;;;;;;25.25;16.35;;;6.30;91.40;;;;;;4961474;28;20382;-71
2024/03/26 00:51:32;;;;;;;26.83;15.65;;;6.20;91.80;;;;;;4969264;28;20477;-68
2024/03/26 00:53:58;;;;;;;27.05;16.63;;;6.10;91.80;;;;;;4971933;28;20052;-69
2024/03/26 00:56:25;;;;;;;24.30;16.17;;;6.00;91.80;;;;;;4986077;28;20048;-71
2024/03/26 00:58:51;;;;;;;25.92;16.52;;;5.90;91.90;;;;;;4972204;28;20038;-71
2024/03/26 01:01:17;;;;;;;22.92;17.02;;;5.80;91.70;;;;;;4978927;28;20030;-72
2024/03/26 01:03:43;;;;;;;26.65;17.38;;;5.70;92.00;;;;;;4971984;28;20038;-69
2024/03/26 01:06:10;;;;;;;23.95;15.48;;;5.80;91.90;;;;;;4978084;28;20035;-70
2024/03/26 01:08:36;;;;;;;20.58;14.93;;;5.80;91.90;;;;;;4979019;28;20038;-68
2024/03/26 01:11:02;;;;;;;24.55;16.42;;;5.80;91.60;;;;;;4972108;28;20037;-69
2024/03/26 01:13:29;;;;;;;21.98;14.07;;;5.70;91.60;;;;;;4973770;28;20061;-71
2024/03/26 01:15:55;;;;;;;21.88;15.70;;;5.70;91.70;;;;;;4977056;28;20038;-72
2024/03/26 01:18:21;;;;;;;24.17;15.35;;;5.80;91.90;;;;;;4969382;28;20096;-73
2024/03/26 01:20:48;;;;;;;22.90;15.07;;;5.50;91.60;;;;;;4968623;28;20405;-73
2024/03/26 01:23:14;;;;;;;24.48;14.85;;;5.50;91.90;;;;;;4971548;28;20026;-70
2024/03/26 01:25:40;;;;;;;20.58;14.68;;;5.60;92.00;;;;;;4971944;28;20038;-72
2024/03/26 01:28:06;;;;;;;21.65;14.48;;;5.60;91.70;;;;;;4978304;28;20042;-71
2024/03/26 01:30:33;;;;;;;21.65;14.60;;;5.60;91.50;;;;;;4977897;28;20489;-69
2024/03/26 01:32:59;;;;;;;19.95;14.05;;;5.60;91.40;;;;;;4972895;28;20111;-69
2024/03/26 01:35:26;;;;;;;18.17;12.75;;;5.70;91.60;;;;;;4972340;28;20095;-69
2024/03/26 01:37:53;;;;;;;22.27;13.85;;;5.70;91.50;;;;;;4974791;28;20042;-70
2024/03/26 01:40:19;;;;;;;19.45;12.52;;;5.90;91.60;;;;;;4956583;28;20031;-72
2024/03/26 01:42:45;;;;;;;17.92;11.82;;;5.80;91.30;;;;;;4990352;28;20045;-70
2024/03/26 01:45:12;;;;;;;18.58;12.10;;;5.50;91.50;;;;;;4971643;28;20030;-72
2024/03/26 01:47:39;;;;;;;20.65;12.48;;;5.40;92.40;;;;;;4971610;28;20381;-70
2024/03/26 01:50:17;;;;;;;13.57;11.68;;;5.20;92.50;;;;;;4971852;28;20092;-70
2024/03/26 01:53:05;;;;;;;12.30;9.98;;;5.30;92.70;;;;;;4988458;28;20046;-70
2024/03/26 01:55:33;;;;;;;16.75;11.68;;;5.00;92.10;;;;;;4971570;28;20038;-71
2024/03/26 01:58:00;;;;;;;14.30;9.98;;;5.10;92.10;;;;;;5035078;28;20347;-70
2024/03/26 02:00:29;;;;;;;12.80;9.60;;;5.20;91.60;;;;;;5004797;28;20370;-72
2024/03/26 02:02:56;;;;;;;14.30;10.52;;;5.10;91.20;;;;;;4971500;28;20046;-73
2024/03/26 02:05:23;;;;;;;12.35;9.57;;;5.10;91.20;;;;;;4970171;28;20796;-71
2024/03/26 02:07:49;;;;;;;13.65;10.88;;;4.90;91.30;;;;;;4983188;28;20415;-72
2024/03/26 02:10:16;;;;;;;12.68;9.30;;;4.90;91.30;;;;;;4967759;28;20189;-70
2024/03/26 02:12:42;;;;;;;14.60;9.20;;;4.80;91.20;;;;;;4983037;28;20030;-69
2024/03/26 02:15:09;;;;;;;10.32;8.40;;;4.80;91.20;;;;;;4983084;28;20026;-71
2024/03/26 02:17:35;;;;;;;12.48;8.55;;;4.90;91.30;;;;;;4988856;28;20068;-71
2024/03/26 02:20:03;;;;;;;10.55;8.55;;;4.70;91.60;;;;;;4972925;28;20042;-73
2024/03/26 02:22:30;;;;;;;14.63;9.30;;;4.60;91.80;;;;;;4996605;28;20038;-70
2024/03/26 02:24:56;;;;;;;14.05;8.80;;;4.50;92.40;;;;;;4977708;28;20397;-72
2024/03/26 02:27:23;;;;;;;11.73;8.90;;;4.70;92.20;;;;;;4990207;28;20030;-72
2024/03/26 02:29:49;;;;;;;10.77;8.60;;;4.70;92.10;;;;;;4990116;28;20472;-71
2024/03/26 02:32:34;;;;;;;12.60;8.75;;;4.90;92.00;;;;;;4995149;28;20015;-70
2024/03/26 02:35:00;;;;;;;11.65;8.38;;;4.90;91.70;;;;;;4990233;28;20049;-68
2024/03/26 02:37:45;;;;;;;11.32;9.15;;;4.70;91.70;;;;;;4995266;28;20380;-70
2024/03/26 02:40:12;;;;;;;13.15;9.48;;;4.50;92.60;;;;;;4977697;28;20026;-70
2024/03/26 02:42:40;;;;;;;13.57;10.13;;;4.60;92.70;;;;;;4961425;28;20038;-72
2024/03/26 02:45:07;;;;;;;14.35;9.02;;;4.80;92.30;;;;;;4977618;28;20069;-69
2024/03/26 02:47:33;;;;;;;14.43;9.48;;;4.70;92.20;;;;;;4977829;28;20091;-73
2024/03/26 02:49:59;;;;;;;13.98;9.70;;;4.60;92.20;;;;;;4977222;28;20037;-70
2024/03/26 02:52:26;;;;;;;13.07;9.60;;;4.90;92.10;;;;;;4977027;28;20401;-70
2024/03/26 02:54:52;;;;;;;13.95;9.13;;;5.10;91.80;;;;;;4984165;28;20043;-71
2024/03/26 02:57:18;;;;;;;12.57;9.50;;;5.10;91.60;;;;;;4982349;28;20038;-70
2024/03/26 02:59:45;;;;;;;12.38;9.23;;;5.10;91.60;;;;;;4981741;28;20055;-71
2024/03/26 03:02:11;;;;;;;13.02;10.30;;;5.10;91.60;;;;;;4986337;28;20039;-74
2024/03/26 03:04:38;;;;;;;12.95;9.95;;;5.20;91.80;;;;;;4969020;28;20038;-73
2024/03/26 03:07:04;;;;;;;12.40;9.82;;;5.20;91.70;;;;;;4980166;28;20034;-70
2024/03/26 03:09:30;;;;;;;15.38;10.40;;;5.30;91.60;;;;;;4978125;28;20030;-71
2024/03/26 03:11:56;;;;;;;14.32;10.10;;;5.20;91.70;;;;;;4981295;28;20045;-69
2024/03/26 03:14:22;;;;;;;14.32;10.55;;;5.20;91.70;;;;;;4988539;28;20061;-68
2024/03/26 03:16:49;;;;;;;15.63;9.85;;;5.10;91.50;;;;;;4980965;28;20035;-73
2024/03/26 03:19:15;;;;;;;12.82;10.70;;;5.00;92.10;;;;;;4994032;28;20034;-70
2024/03/26 03:21:41;;;;;;;14.60;10.77;;;5.00;92.30;;;;;;4980539;28;20038;-71
2024/03/26 03:24:07;;;;;;;21.38;11.05;;;5.00;92.10;;;;;;4973593;28;20034;-70
2024/03/26 03:26:33;;;;;;;14.55;10.02;;;5.10;92.10;;;;;;4974903;28;20038;-70
2024/03/26 03:28:59;;;;;;;14.52;9.75;;;5.30;92.10;;;;;;4978363;28;20159;-71
2024/03/26 03:31:26;;;;;;;14.68;10.02;;;5.30;92.10;;;;;;4973719;28;20057;-73
2024/03/26 03:33:52;;;;;;;13.57;10.63;;;5.50;92.00;;;;;;4992888;28;20535;-69
2024/03/26 03:36:19;;;;;;;13.85;10.23;;;5.50;91.60;;;;;;4979451;28;20045;-68
2024/03/26 03:38:45;;;;;;;17.98;9.85;;;5.50;91.60;;;;;;4986409;28;20045;-70
2024/03/26 03:41:11;;;;;;;13.70;10.02;;;5.60;91.40;;;;;;4973437;28;20045;-70
2024/03/26 03:43:38;;;;;;;14.23;10.50;;;5.50;91.70;;;;;;4957272;28;20477;-70
2024/03/26 03:46:22;;;;;;;15.35;10.10;;;5.60;91.80;;;;;;4990241;28;20076;-69
2024/03/26 03:48:49;;;;;;;14.55;10.57;;;5.50;91.40;;;;;;4967870;28;20389;-68
2024/03/26 03:51:15;;;;;;;15.32;9.85;;;5.50;91.60;;;;;;4988361;28;20034;-71
2024/03/26 03:53:41;;;;;;;12.00;9.38;;;5.20;91.60;;;;;;4973762;28;20187;-69
2024/03/26 03:56:08;;;;;;;16.27;11.65;;;4.60;92.70;;;;;;4972675;28;20034;-71
2024/03/26 03:58:34;;;;;;;13.07;10.60;;;4.70;93.20;;;;;;4972441;28;20038;-69
2024/03/26 04:01:00;;;;;;;15.57;11.20;;;5.00;93.20;;;;;;4959809;28;20045;-72
2024/03/26 04:03:26;;;;;;;17.38;10.73;;;5.30;92.60;;;;;;4980631;28;20034;-72
2024/03/26 04:05:53;;;;;;;16.35;11.98;;;5.60;92.00;;;;;;4977899;28;20030;-69
2024/03/26 04:08:19;;;;;;;16.38;10.77;;;5.60;92.10;;;;;;4981311;28;20389;-68
2024/03/26 04:10:46;;;;;;;19.55;12.23;;;5.70;92.10;;;;;;4972925;28;20038;-69
2024/03/26 04:13:12;;;;;;;14.52;11.55;;;5.80;91.80;;;;;;4980973;28;20026;-70
2024/03/26 04:15:39;;;;;;;18.15;11.80;;;5.80;91.60;;;;;;4973822;28;20035;-73
2024/03/26 04:18:06;;;;;;;16.15;10.98;;;5.90;91.50;;;;;;4976561;28;20034;-68
2024/03/26 04:20:33;;;;;;;18.70;11.77;;;5.90;91.30;;;;;;4975237;28;20034;-71
2024/03/26 04:23:00;;;;;;;15.32;11.70;;;5.70;91.10;;;;;;4989903;28;20026;-72
2024/03/26 04:25:26;;;;;;;18.35;12.43;;;5.30;92.20;;;;;;4981431;28;20035;-69
2024/03/26 04:27:53;;;;;;;16.77;12.10;;;5.20;92.30;;;;;;4977324;28;20063;-70
2024/03/26 04:30:19;;;;;;;17.27;11.85;;;5.30;92.20;;;;;;4975772;28;20045;-69
2024/03/26 04:32:45;;;;;;;17.55;11.90;;;5.40;92.30;;;;;;4974255;28;20034;-70
2024/03/26 04:35:12;;;;;;;16.27;12.43;;;5.50;92.10;;;;;;4971914;28;20042;-73
2024/03/26 04:37:38;;;;;;;16.77;11.95;;;5.60;91.90;;;;;;4983023;28;20042;-70
2024/03/26 04:40:05;;;;;;;18.02;11.90;;;5.50;91.90;;;;;;4975046;28;20039;-71
2024/03/26 04:42:32;;;;;;;15.15;11.27;;;5.50;91.90;;;;;;4973630;28;20034;-70
2024/03/26 04:44:58;;;;;;;20.13;12.30;;;5.20;92.50;;;;;;4977453;28;20057;-74
2024/03/26 04:47:25;;;;;;;17.50;12.13;;;5.30;92.60;;;;;;4980207;28;20039;-72
2024/03/26 04:49:51;;;;;;;16.58;11.20;;;5.40;92.40;;;;;;4972430;28;20096;-70
2024/03/26 04:52:18;;;;;;;16.20;12.00;;;5.60;92.00;;;;;;4983770;28;20046;-69
2024/03/26 04:54:44;;;;;;;16.73;11.40;;;5.40;92.40;;;;;;4972575;28;20035;-71
2024/03/26 04:57:11;;;;;;;17.02;12.25;;;5.60;92.80;;;;;;4972428;28;20422;-71
2024/03/26 04:59:37;;;;;;;16.00;12.00;;;5.80;92.40;;;;;;4975895;28;20026;-70
2024/03/26 05:02:03;;;;;;;15.50;12.05;;;5.80;92.00;;;;;;4978441;28;20350;-69
2024/03/26 05:04:29;;;;;;;19.48;13.07;;;5.70;92.00;;;;;;4974474;28;20365;-70
2024/03/26 05:06:56;;;;;;;22.27;13.50;;;5.60;92.00;;;;;;4978690;28;20038;-71
2024/03/26 05:09:40;;;;;;;18.08;14.07;;;5.40;92.40;;;;;;4989655;28;20058;-70
2024/03/26 05:12:25;;;;;;;21.13;14.63;;;5.20;92.10;;;;;;4989875;28;20071;-70
2024/03/26 05:14:52;;;;;;;22.25;13.77;;;5.20;92.90;;;;;;4984356;28;20385;-71
2024/03/26 05:17:18;;;;;;;16.33;12.73;;;5.40;92.60;;;;;;4989897;28;20059;-72
2024/03/26 05:19:44;;;;;;;17.13;12.45;;;5.30;92.10;;;;;;4993951;28;20037;-72
2024/03/26 05:22:11;;;;;;;17.90;11.88;;;5.10;92.10;;;;;;4971946;28;20115;-71
2024/03/26 05:24:40;;;;;;;15.57;11.43;;;5.00;92.40;;;;;;4976250;28;20034;-70
2024/03/26 05:27:08;;;;;;;16.85;11.10;;;4.90;92.60;;;;;;4974101;28;20465;-73
2024/03/26 05:29:36;;;;;;;15.13;11.10;;;4.80;92.70;;;;;;4974260;28;20433;-72
2024/03/26 05:32:02;;;;;;;14.77;11.20;;;4.60;93.20;;;;;;4984056;28;20377;-69
2024/03/26 05:34:29;;;;;;;15.98;10.93;;;4.60;93.50;;;;;;4980976;28;20408;-69
2024/03/26 05:36:55;;;;;;;19.33;10.65;;;4.30;93.70;;;;;;4977127;28;20045;-69
2024/03/26 05:39:21;;;;;;;13.82;10.90;;;4.60;93.90;;;;;;4984602;28;20087;-72
2024/03/26 05:41:49;;;;;;;14.65;10.98;;;4.50;93.60;;;;;;4981165;28;20038;-68
2024/03/26 05:44:15;;;;;;;14.38;10.63;;;4.70;93.60;;;;;;4971872;28;20474;-70
2024/03/26 05:46:42;;;;;;;12.88;10.25;;;5.10;93.30;;;;;;4984759;28;20041;-69
2024/03/26 05:49:08;;;;;;;14.57;10.48;;;5.00;92.50;;;;;;4971407;28;20117;-70
2024/03/26 05:51:34;;;;;;;14.48;9.55;;;4.90;92.80;;;;;;4966191;28;20419;-72
2024/03/26 05:54:01;;;;;;;15.20;10.27;;;5.00;93.00;;;;;;4977823;28;20041;-71
2024/03/26 05:56:27;;;;;;;19.73;10.85;;;5.20;92.40;;;;;;4971108;28;20039;-72
2024/03/26 05:58:56;;;;;;;17.77;9.98;;;5.20;92.30;;;;;;4972336;28;20038;-69
2024/03/26 06:01:24;;;;;;;15.90;11.02;;;5.20;92.50;;;;;;4977893;28;20065;-71
2024/03/26 06:03:50;;;;;;;15.10;10.45;;;5.20;92.40;;;;;;4977728;28;20038;-70
2024/03/26 06:06:16;;;;;;;15.80;10.27;;;5.30;92.30;;;;;;4973396;28;20030;-70
2024/03/26 06:09:00;;;;;;;13.27;9.85;;;5.10;92.80;;;;;;4988033;28;20379;-72
2024/03/26 06:11:27;;;;;;;12.43;10.02;;;5.60;92.40;;;;;;4963944;28;20030;-70
2024/03/26 06:13:53;;;;;;;29.85;20.20;;;6.10;92.00;;;;;;4979669;28;20088;-70
2024/03/26 06:16:19;;;;;;;64.90;34.88;;;6.90;93.00;;;;;;4973161;28;20026;-70
2024/03/26 06:19:04;;;;;;;16.88;14.05;;;7.40;91.90;;;;;;5006000;28;20079;-71
2024/03/26 06:21:49;;;;;;;13.80;11.00;;;7.20;89.30;;;;;;4973739;28;20485;-69
2024/03/26 06:24:15;;;;;;;15.05;10.70;;;6.90;89.10;;;;;;4969348;28;20118;-70
2024/03/26 06:26:41;;;;;;;19.30;10.85;;;6.70;89.70;;;;;;4970213;28;20118;-71
2024/03/26 06:29:08;;;;;;;15.18;9.93;;;6.60;90.10;;;;;;4969910;28;20366;-70
2024/03/26 06:31:34;;;;;;;12.07;10.10;;;6.40;90.70;;;;;;4960666;28;20035;-69
2024/03/26 06:34:00;;;;;;;15.15;10.60;;;6.30;90.70;;;;;;4971086;28;20058;-70
2024/03/26 06:36:26;;;;;;;14.27;10.55;;;6.00;91.10;;;;;;4971568;28;20112;-68
2024/03/26 06:38:53;;;;;;;74.63;36.67;;;6.20;91.50;;;;;;4970994;28;20042;-71
2024/03/26 06:41:20;;;;;;;77.80;40.30;;;6.30;91.90;;;;;;4970699;28;20039;-69
2024/03/26 06:43:48;;;;;;;21.50;16.02;;;6.60;91.40;;;;;;4971111;28;20381;-71
2024/03/26 06:46:15;;;;;;;16.23;11.95;;;6.60;90.80;;;;;;4983917;28;20038;-69
2024/03/26 06:48:42;;;;;;;16.85;11.90;;;6.40;90.70;;;;;;4964813;28;20042;-69
2024/03/26 06:51:08;;;;;;;16.10;11.75;;;6.70;90.50;;;;;;4961021;28;20353;-70
2024/03/26 06:53:34;;;;;;;14.85;11.00;;;6.70;90.30;;;;;;4980848;28;20385;-70
2024/03/26 06:56:00;;;;;;;14.82;10.73;;;7.00;90.30;;;;;;4982989;28;20038;-67
2024/03/26 06:58:26;;;;;;;15.52;11.00;;;7.10;89.50;;;;;;4963048;28;20042;-70
2024/03/26 07:00:53;;;;;;;14.43;11.75;;;6.80;90.10;;;;;;4973848;28;20043;-67
2024/03/26 07:03:20;;;;;;;19.13;12.50;;;7.20;90.10;;;;;;4974574;28;20095;-68
2024/03/26 07:05:46;;;;;;;16.45;11.77;;;7.50;89.30;;;;;;4977743;28;20041;-66
2024/03/26 07:08:12;;;;;;;17.55;12.55;;;7.70;88.60;;;;;;4983097;28;20035;-71
2024/03/26 07:10:38;;;;;;;15.45;11.55;;;7.70;88.80;;;;;;4978362;28;20034;-72
2024/03/26 07:13:05;;;;;;;17.38;11.70;;;7.80;88.60;;;;;;4993609;28;20037;-76
2024/03/26 07:15:49;;;;;;;23.85;13.73;;;7.80;87.90;;;;;;4987913;28;20730;-71
2024/03/26 07:18:16;;;;;;;21.98;13.32;;;7.90;88.60;;;;;;4983978;28;20076;-67
2024/03/26 07:20:42;;;;;;;25.55;16.83;;;7.90;87.30;;;;;;4974758;28;20034;-68
2024/03/26 07:23:08;;;;;;;61.78;33.85;;;7.80;90.80;;;;;;4973376;28;20385;-71
2024/03/26 07:25:34;;;;;;;23.15;17.05;;;8.40;90.60;;;;;;4973359;28;20038;-73
2024/03/26 07:28:01;;;;;;;20.92;13.90;;;8.30;87.30;;;;;;4986017;28;20056;-73
2024/03/26 07:30:27;;;;;;;18.70;12.63;;;8.30;86.60;;;;;;4970382;28;20042;-75
2024/03/26 07:32:53;;;;;;;26.42;12.52;;;8.20;85.90;;;;;;4981547;28;20431;-77
2024/03/26 07:35:22;;;;;;;17.02;12.68;;;8.20;85.90;;;;;;4972120;28;20424;-73
2024/03/26 07:37:48;;;;;;;21.60;13.40;;;8.10;86.00;;;;;;4986090;28;20052;-73
2024/03/26 07:40:15;;;;;;;19.00;12.68;;;8.00;86.80;;;;;;4973995;28;20026;-72
2024/03/26 07:42:42;;;;;;;20.58;12.90;;;8.10;86.90;;;;;;4953237;28;20083;-72
2024/03/26 07:45:09;;;;;;;20.45;12.63;;;8.30;86.60;;;;;;4973473;28;20038;-73
2024/03/26 07:47:36;;;;;;;18.33;12.40;;;8.30;86.10;;;;;;4986630;28;20045;-71
2024/03/26 07:50:03;;;;;;;18.02;12.63;;;8.40;86.30;;;;;;4981260;28;20041;-72
2024/03/26 07:52:29;;;;;;;23.40;13.40;;;8.30;85.80;;;;;;4979174;28;20420;-73
2024/03/26 07:54:55;;;;;;;16.27;12.90;;;8.20;85.90;;;;;;4985463;28;20469;-73
2024/03/26 07:57:22;;;;;;;17.48;12.60;;;8.00;86.00;;;;;;4957765;28;20447;-72
2024/03/26 07:59:48;;;;;;;17.98;11.75;;;7.80;86.30;;;;;;4973604;28;20472;-69
2024/03/26 08:02:14;;;;;;;18.33;12.45;;;7.70;87.90;;;;;;4972884;28;20042;-74
2024/03/26 08:04:42;;;;;;;17.83;12.27;;;7.70;87.40;;;;;;4982299;28;20408;-74
2024/03/26 08:07:09;;;;;;;18.15;12.02;;;7.80;87.70;;;;;;4976928;28;20042;-72
2024/03/26 08:09:35;;;;;;;24.25;13.50;;;7.80;87.50;;;;;;4972711;28;20108;-73
2024/03/26 08:12:01;;;;;;;17.67;11.98;;;7.50;89.40;;;;;;4976244;28;20022;-69
2024/03/26 08:14:27;;;;;;;14.73;11.23;;;7.50;88.50;;;;;;4992692;28;20438;-71
2024/03/26 08:16:54;;;;;;;16.58;11.70;;;7.60;87.90;;;;;;4960800;28;20431;-72
2024/03/26 08:19:20;;;;;;;15.48;11.70;;;7.70;87.80;;;;;;4973923;28;20085;-75
2024/03/26 08:21:46;;;;;;;16.45;12.13;;;7.70;87.50;;;;;;4969111;28;20046;-73
2024/03/26 08:24:14;;;;;;;16.65;11.88;;;7.80;87.60;;;;;;4974353;28;20076;-70
2024/03/26 08:26:40;;;;;;;15.48;11.52;;;8.00;87.20;;;;;;4992548;28;20361;-70
2024/03/26 08:29:06;;;;;;;16.35;12.82;;;8.10;86.90;;;;;;4977626;28;20493;-69
2024/03/26 08:31:32;;;;;;;16.17;12.27;;;8.20;87.00;;;;;;4973228;28;20053;-72
2024/03/26 08:34:00;;;;;;;15.32;10.82;;;8.30;86.00;;;;;;4964430;28;20064;-73
2024/03/26 08:36:29;;;;;;;12.10;10.38;;;8.50;85.30;;;;;;4978058;28;20046;-72
2024/03/26 08:38:55;;;;;;;18.98;11.95;;;8.80;84.20;;;;;;4957072;28;20060;-74
2024/03/26 08:41:25;;;;;;;19.98;12.30;;;8.80;83.50;;;;;;4972566;28;20039;-77
2024/03/26 08:43:53;;;;;;;18.48;12.57;;;8.90;84.30;;;;;;4973241;28;20038;-70
2024/03/26 08:46:20;;;;;;;13.95;10.38;;;9.00;84.00;;;;;;4972360;28;20031;-71
2024/03/26 08:48:46;;;;;;;16.77;12.57;;;9.20;83.20;;;;;;4973248;28;20385;-75
2024/03/26 08:51:13;;;;;;;13.45;11.13;;;9.30;83.20;;;;;;4975761;28;20037;-71
2024/03/26 08:53:39;;;;;;;16.98;11.35;;;9.30;83.40;;;;;;4991527;28;20045;-73
2024/03/26 08:56:06;;;;;;;13.45;10.95;;;9.30;82.20;;;;;;4978638;28;20143;-72
2024/03/26 08:58:32;;;;;;;14.23;10.88;;;9.10;81.60;;;;;;4981408;28;20057;-73
2024/03/26 09:00:58;;;;;;;14.02;10.40;;;9.20;81.50;;;;;;4976738;28;20340;-75
2024/03/26 09:03:43;;;;;;;13.20;9.57;;;9.30;81.70;;;;;;4981276;28;20125;-74
2024/03/26 09:06:09;;;;;;;11.27;9.25;;;9.40;80.00;;;;;;4972515;28;20397;-70
2024/03/26 09:08:36;;;;;;;10.95;8.48;;;9.30;79.30;;;;;;4972200;28;20046;-71
2024/03/26 09:11:03;;;;;;;12.57;9.90;;;9.20;78.70;;;;;;4972315;28;20034;-72
2024/03/26 09:13:30;;;;;;;8.30;6.88;;;9.20;78.60;;;;;;4958153;28;20042;-70
2024/03/26 09:15:56;;;;;;;8.68;7.57;;;9.40;76.30;;;;;;4983328;28;20049;-72
2024/03/26 09:18:22;;;;;;;9.68;7.80;;;9.40;76.10;;;;;;4985054;28;20049;-71
2024/03/26 09:20:48;;;;;;;11.13;8.73;;;9.60;76.00;;;;;;4987586;28;20474;-71
2024/03/26 09:23:15;;;;;;;11.98;9.05;;;9.90;76.20;;;;;;4978040;28;20542;-75
2024/03/26 09:25:42;;;;;;;16.23;9.98;;;9.90;76.70;;;;;;4978922;28;20069;-75
2024/03/26 09:28:08;;;;;;;11.93;8.85;;;9.90;77.10;;;;;;4972340;28;20393;-72
2024/03/26 09:30:35;;;;;;;13.23;9.65;;;9.80;76.60;;;;;;4971287;28;20116;-70
2024/03/26 09:33:01;;;;;;;11.82;9.07;;;9.70;76.60;;;;;;4985151;28;20057;-72
2024/03/26 09:35:27;;;;;;;14.98;9.85;;;9.80;76.20;;;;;;4971284;28;20038;-73
2024/03/26 09:37:54;;;;;;;12.00;8.95;;;9.70;76.30;;;;;;4971940;28;20042;-70
2024/03/26 09:40:20;;;;;;;9.70;7.70;;;9.60;75.50;;;;;;4958967;28;20042;-72
2024/03/26 09:42:46;;;;;;;11.85;7.65;;;9.80;74.80;;;;;;4971917;28;20424;-70
2024/03/26 09:45:13;;;;;;;9.60;7.70;;;9.70;75.90;;;;;;4971868;28;20170;-69
2024/03/26 09:47:45;;;;;;;9.45;7.63;;;9.90;74.70;;;;;;4985254;28;20042;-71
2024/03/26 09:50:11;;;;;;;8.80;5.82;;;10.00;73.60;;;;;;4990739;28;20049;-71
2024/03/26 09:52:42;;;;;;;8.88;6.53;;;10.00;71.70;;;;;;4988394;28;20045;-72
2024/03/26 09:55:11;;;;;;;13.10;6.20;;;10.00;72.20;;;;;;4972017;28;20034;-72
2024/03/26 09:57:37;;;;;;;9.75;7.40;;;10.10;72.00;;;;;;4971673;28;20042;-71
2024/03/26 10:00:04;;;;;;;9.93;7.10;;;10.20;72.50;;;;;;4971668;28;20398;-74
2024/03/26 10:02:30;;;;;;;9.40;7.47;;;10.20;73.00;;;;;;4956203;28;20042;-67
2024/03/26 10:04:57;;;;;;;9.80;7.25;;;10.40;72.60;;;;;;4971611;28;20034;-70
2024/03/26 10:07:24;;;;;;;8.10;6.53;;;10.60;72.10;;;;;;4971909;28;20038;-74
2024/03/26 10:09:50;;;;;;;10.07;7.10;;;10.40;72.80;;;;;;4980020;28;20042;-71
2024/03/26 10:12:16;;;;;;;8.63;7.10;;;10.60;72.50;;;;;;4974525;28;20404;-70
2024/03/26 10:14:42;;;;;;;11.88;7.65;;;10.50;72.00;;;;;;4955789;28;20135;-77
2024/03/26 10:17:09;;;;;;;9.90;7.10;;;10.70;77.20;;;;;;4973178;28;20030;-73
2024/03/26 10:19:37;;;;;;;11.07;8.48;;;10.70;77.70;;;;;;4959242;28;20054;-71
2024/03/26 10:22:03;;;;;;;10.60;7.22;;;11.50;80.80;;;;;;4992725;28;20030;-77
2024/03/26 10:24:29;;;;;;;10.23;7.30;;;11.60;74.10;;;;;;4977009;28;20090;-72
2024/03/26 10:26:55;;;;;;;8.88;6.53;;;11.80;74.50;;;;;;4988575;28;20052;-70
2024/03/26 10:29:22;;;;;;;9.15;6.10;;;11.60;72.20;;;;;;4959760;28;20038;-70
2024/03/26 10:31:49;;;;;;;8.70;6.88;;;11.60;70.80;;;;;;4980430;28;20065;-71
2024/03/26 10:34:32;;;;;;;9.45;6.63;;;11.70;73.40;;;;;;4948704;28;20046;-70
2024/03/26 10:37:01;;;;;;;13.85;6.50;;;12.00;73.90;;;;;;4975646;28;20047;-70
2024/03/26 10:39:35;;;;;;;9.90;6.18;;;12.00;73.90;;;;;;4952069;28;20046;-72
2024/03/26 10:42:03;;;;;;;9.75;6.65;;;12.10;72.20;;;;;;4967458;28;20049;-73
2024/03/26 10:44:31;;;;;;;9.48;6.72;;;12.10;72.10;;;;;;4995855;28;20041;-69
2024/03/26 10:46:59;;;;;;;7.88;6.28;;;11.60;73.00;;;;;;4977794;28;20038;-72
2024/03/26 10:49:26;;;;;;;8.35;6.13;;;11.70;74.40;;;;;;4989350;28;20053;-69
2024/03/26 10:51:53;;;;;;;8.32;6.32;;;11.70;72.50;;;;;;4979626;28;20046;-72
2024/03/26 10:54:21;;;;;;;8.45;5.70;;;11.70;73.50;;;;;;4975739;28;20451;-68
2024/03/26 10:56:49;;;;;;;8.00;6.03;;;11.70;72.80;;;;;;4985787;28;20092;-71
2024/03/26 10:59:16;;;;;;;9.45;6.75;;;11.60;71.30;;;;;;4975241;28;20402;-69
2024/03/26 11:01:43;;;;;;;8.27;6.43;;;11.50;73.30;;;;;;4952863;28;20049;-66
2024/03/26 11:04:10;;;;;;;10.45;6.90;;;11.80;72.50;;;;;;4977692;28;20030;-72
2024/03/26 11:06:37;;;;;;;8.23;6.30;;;11.70;71.40;;;;;;4990447;28;20030;-70
2024/03/26 11:09:05;;;;;;;8.15;6.13;;;11.30;72.50;;;;;;4979641;28;20049;-73
2024/03/26 11:11:35;;;;;;;8.98;6.55;;;11.40;73.00;;;;;;4981904;28;20037;-72
2024/03/26 11:14:05;;;;;;;12.18;6.75;;;11.60;73.50;;;;;;4983354;28;20397;-72
2024/03/26 11:16:39;;;;;;;8.38;6.32;;;11.60;73.10;;;;;;4974176;28;20049;-71
2024/03/26 11:19:25;;;;;;;9.60;6.45;;;11.60;73.30;;;;;;4985475;28;20038;-76
2024/03/26 11:21:53;;;;;;;7.63;6.15;;;11.40;73.00;;;;;;4974083;28;20054;-76
2024/03/26 11:24:40;;;;;;;9.10;6.43;;;11.60;72.70;;;;;;4975856;28;20076;-72
2024/03/26 11:27:07;;;;;;;7.32;6.10;;;11.70;71.80;;;;;;4985184;28;20432;-75
2024/03/26 11:29:35;;;;;;;8.15;6.20;;;11.70;73.50;;;;;;4975655;28;20057;-73
2024/03/26 11:32:01;;;;;;;8.00;6.47;;;12.20;72.60;;;;;;4978904;28;20464;-75
2024/03/26 11:34:31;;;;;;;8.15;6.22;;;12.10;70.70;;;;;;4993121;28;20033;-73
2024/03/26 11:36:59;;;;;;;7.22;5.88;;;12.00;70.70;;;;;;4985085;28;20108;-75
2024/03/26 11:39:26;;;;;;;7.53;5.78;;;11.80;70.30;;;;;;4981944;28;20050;-71
2024/03/26 11:41:54;;;;;;;6.70;5.63;;;11.20;71.10;;;;;;4979964;28;20030;-71
2024/03/26 11:44:20;;;;;;;9.02;6.25;;;11.40;71.90;;;;;;4974082;28;20034;-71
2024/03/26 11:46:47;;;;;;;7.07;5.68;;;11.00;71.10;;;;;;4964763;28;20042;-73
2024/03/26 11:49:14;;;;;;;8.25;5.88;;;11.40;72.90;;;;;;4966197;28;20046;-70
2024/03/26 11:51:42;;;;;;;8.45;6.15;;;12.00;71.40;;;;;;4974984;28;20027;-74
2024/03/26 11:54:08;;;;;;;8.05;6.22;;;11.80;69.70;;;;;;4980695;28;20068;-69
2024/03/26 11:56:35;;;;;;;8.88;6.18;;;11.80;70.30;;;;;;4954093;28;20045;-68
2024/03/26 11:59:02;;;;;;;8.15;6.28;;;11.80;70.50;;;;;;4980140;28;20034;-66
2024/03/26 12:01:28;;;;;;;8.27;6.00;;;11.80;72.40;;;;;;4975733;28;20050;-76
2024/03/26 12:04:06;;;;;;;10.05;5.68;;;12.00;71.30;;;;;;4974959;28;20053;-69
2024/03/26 12:06:33;;;;;;;7.82;5.68;;;11.90;69.80;;;;;;4980152;28;20031;-70
2024/03/26 12:09:00;;;;;;;6.40;4.78;;;11.70;68.50;;;;;;4984120;28;21256;-73
2024/03/26 12:11:26;;;;;;;6.43;4.90;;;11.60;68.10;;;;;;4987456;28;20046;-69
2024/03/26 12:13:53;;;;;;;5.82;4.72;;;11.50;68.50;;;;;;4979254;28;20038;-69
2024/03/26 12:16:39;;;;;;;6.38;4.47;;;11.40;69.30;;;;;;4991511;28;20065;-73
2024/03/26 12:19:07;;;;;;;6.35;4.70;;;11.30;69.80;;;;;;4979434;28;20041;-72
2024/03/26 12:21:33;;;;;;;7.28;5.10;;;11.60;69.40;;;;;;4992956;28;20034;-73
2024/03/26 12:24:01;;;;;;;6.07;4.47;;;11.60;68.40;;;;;;4992176;28;20092;-73
2024/03/26 12:26:27;;;;;;;6.10;4.57;;;11.70;68.60;;;;;;4977266;28;20026;-70
2024/03/26 12:28:54;;;;;;;6.50;4.38;;;11.80;68.30;;;;;;4976399;28;20095;-70
2024/03/26 12:31:20;;;;;;;7.10;4.65;;;11.70;67.70;;;;;;4959722;28;20086;-70
2024/03/26 12:33:47;;;;;;;6.40;4.70;;;11.40;68.40;;;;;;4975350;28;20038;-69
2024/03/26 12:36:13;;;;;;;8.32;5.20;;;11.40;69.10;;;;;;4957833;28;20442;-71
2024/03/26 12:38:42;;;;;;;5.85;4.35;;;11.20;69.80;;;;;;4987252;28;20140;-68
2024/03/26 12:41:09;;;;;;;5.70;4.55;;;11.10;70.70;;;;;;4972963;28;20035;-70
2024/03/26 12:43:36;;;;;;;5.38;4.55;;;11.30;70.80;;;;;;4980805;28;20034;-68